sensor_id;sensor_type;location;lat;lon;timestamp;pressure;altitude;pressure_sealevel;temperature;humidity
35129;BME280;21301;43.626;10.580;2023-12-20T00:02:22;101847.44;;;6.46;83.10
35129;BME280;21301;43.626;10.580;2023-12-20T00:04:48;101848.28;;;6.46;83.27
35129;BME280;21301;43.626;10.580;2023-12-20T00:07:15;101845.03;;;6.41;83.04
35129;BME280;21301;43.626;10.580;2023-12-20T00:09:41;101841.44;;;6.44;83.58
35129;BME280;21301;43.626;10.580;2023-12-20T00:12:06;101837.00;;;6.46;83.37
35129;BME280;21301;43.626;10.580;2023-12-20T00:14:32;101843.38;;;6.38;83.82
35129;BME280;21301;43.626;10.580;2023-12-20T00:16:57;101833.38;;;6.28;84.42
35129;BME280;21301;43.626;10.580;2023-12-20T00:19:23;101836.03;;;6.26;84.73
35129;BME280;21301;43.626;10.580;2023-12-20T00:21:49;101831.66;;;6.27;84.54
35129;BME280;21301;43.626;10.580;2023-12-20T00:24:15;101825.53;;;6.28;84.88
35129;BME280;21301;43.626;10.580;2023-12-20T00:26:42;101821.97;;;6.30;84.62
35129;BME280;21301;43.626;10.580;2023-12-20T00:29:07;101820.41;;;6.25;85.22
35129;BME280;21301;43.626;10.580;2023-12-20T00:31:33;101812.75;;;6.20;85.18
35129;BME280;21301;43.626;10.580;2023-12-20T00:33:58;101809.88;;;6.28;84.97
35129;BME280;21301;43.626;10.580;2023-12-20T00:36:24;101804.69;;;6.26;85.40
35129;BME280;21301;43.626;10.580;2023-12-20T00:38:50;101802.22;;;6.23;86.26
35129;BME280;21301;43.626;10.580;2023-12-20T00:41:16;101795.34;;;6.21;85.88
35129;BME280;21301;43.626;10.580;2023-12-20T00:43:42;101796.91;;;6.25;85.82
35129;BME280;21301;43.626;10.580;2023-12-20T00:46:11;101791.97;;;6.18;86.43
35129;BME280;21301;43.626;10.580;2023-12-20T00:48:36;101786.72;;;6.18;86.76
35129;BME280;21301;43.626;10.580;2023-12-20T00:51:02;101790.97;;;6.21;86.85
35129;BME280;21301;43.626;10.580;2023-12-20T00:53:29;101788.19;;;6.26;86.58
35129;BME280;21301;43.626;10.580;2023-12-20T00:55:55;101789.31;;;6.40;86.65
35129;BME280;21301;43.626;10.580;2023-12-20T00:58:21;101774.53;;;6.39;86.51
35129;BME280;21301;43.626;10.580;2023-12-20T01:00:46;101776.94;;;6.44;86.70
35129;BME280;21301;43.626;10.580;2023-12-20T01:03:12;101776.44;;;6.36;86.90
35129;BME280;21301;43.626;10.580;2023-12-20T01:05:39;101774.94;;;6.30;86.84
35129;BME280;21301;43.626;10.580;2023-12-20T01:08:05;101769.50;;;6.35;87.35
35129;BME280;21301;43.626;10.580;2023-12-20T01:10:32;101766.81;;;6.36;87.39
35129;BME280;21301;43.626;10.580;2023-12-20T01:12:58;101759.19;;;6.32;87.61
35129;BME280;21301;43.626;10.580;2023-12-20T01:15:24;101756.69;;;6.29;87.45
35129;BME280;21301;43.626;10.580;2023-12-20T01:17:50;101750.50;;;6.31;87.71
35129;BME280;21301;43.626;10.580;2023-12-20T01:20:16;101746.84;;;6.35;87.92
35129;BME280;21301;43.626;10.580;2023-12-20T01:22:42;101742.41;;;6.37;88.01
35129;BME280;21301;43.626;10.580;2023-12-20T01:25:08;101738.75;;;6.42;87.75
35129;BME280;21301;43.626;10.580;2023-12-20T01:27:34;101738.03;;;6.38;87.38
35129;BME280;21301;43.626;10.580;2023-12-20T01:30:00;101738.09;;;6.36;87.45
35129;BME280;21301;43.626;10.580;2023-12-20T01:32:25;101732.03;;;6.36;87.73
35129;BME280;21301;43.626;10.580;2023-12-20T01:34:51;101743.97;;;6.42;87.72
35129;BME280;21301;43.626;10.580;2023-12-20T01:37:16;101740.50;;;6.41;87.69
35129;BME280;21301;43.626;10.580;2023-12-20T01:39:42;101730.38;;;6.54;87.54
35129;BME280;21301;43.626;10.580;2023-12-20T01:42:07;101744.09;;;6.59;87.76
35129;BME280;21301;43.626;10.580;2023-12-20T01:44:33;101727.56;;;6.58;87.31
35129;BME280;21301;43.626;10.580;2023-12-20T01:46:59;101735.75;;;6.51;87.75
35129;BME280;21301;43.626;10.580;2023-12-20T01:49:25;101728.28;;;6.42;87.78
35129;BME280;21301;43.626;10.580;2023-12-20T01:51:52;101728.28;;;6.42;87.85
35129;BME280;21301;43.626;10.580;2023-12-20T01:54:19;101720.84;;;6.53;87.26
35129;BME280;21301;43.626;10.580;2023-12-20T01:56:46;101708.63;;;6.53;87.83
35129;BME280;21301;43.626;10.580;2023-12-20T01:59:12;101706.81;;;6.55;87.75
35129;BME280;21301;43.626;10.580;2023-12-20T02:01:38;101707.78;;;6.53;87.93
35129;BME280;21301;43.626;10.580;2023-12-20T02:04:03;101713.06;;;6.51;87.82
35129;BME280;21301;43.626;10.580;2023-12-20T02:06:30;101702.09;;;6.43;88.14
35129;BME280;21301;43.626;10.580;2023-12-20T02:09:00;101706.34;;;6.46;88.45
35129;BME280;21301;43.626;10.580;2023-12-20T02:11:27;101703.78;;;6.44;88.61
35129;BME280;21301;43.626;10.580;2023-12-20T02:13:54;101687.28;;;6.44;88.89
35129;BME280;21301;43.626;10.580;2023-12-20T02:16:20;101688.06;;;6.46;88.80
35129;BME280;21301;43.626;10.580;2023-12-20T02:18:46;101683.19;;;6.38;89.23
35129;BME280;21301;43.626;10.580;2023-12-20T02:21:12;101682.06;;;6.44;88.91
35129;BME280;21301;43.626;10.580;2023-12-20T02:23:37;101669.00;;;6.44;89.27
35129;BME280;21301;43.626;10.580;2023-12-20T02:26:04;101667.41;;;6.39;89.43
35129;BME280;21301;43.626;10.580;2023-12-20T02:28:30;101667.16;;;6.46;89.86
35129;BME280;21301;43.626;10.580;2023-12-20T02:30:57;101671.06;;;6.56;89.97
35129;BME280;21301;43.626;10.580;2023-12-20T02:33:22;101663.88;;;6.61;89.83
35129;BME280;21301;43.626;10.580;2023-12-20T02:35:48;101665.00;;;6.55;90.00
35129;BME280;21301;43.626;10.580;2023-12-20T02:38:13;101664.28;;;6.52;90.00
35129;BME280;21301;43.626;10.580;2023-12-20T02:40:39;101660.94;;;6.48;90.44
35129;BME280;21301;43.626;10.580;2023-12-20T02:43:05;101652.97;;;6.51;90.32
35129;BME280;21301;43.626;10.580;2023-12-20T02:45:30;101642.31;;;6.56;90.05
35129;BME280;21301;43.626;10.580;2023-12-20T02:47:56;101643.25;;;6.55;89.84
35129;BME280;21301;43.626;10.580;2023-12-20T02:50:21;101639.78;;;6.54;90.59
35129;BME280;21301;43.626;10.580;2023-12-20T02:52:48;101637.88;;;6.58;90.23
35129;BME280;21301;43.626;10.580;2023-12-20T02:55:14;101633.44;;;6.60;89.99
35129;BME280;21301;43.626;10.580;2023-12-20T02:57:40;101624.75;;;6.59;90.58
35129;BME280;21301;43.626;10.580;2023-12-20T03:00:09;101620.84;;;6.68;89.94
35129;BME280;21301;43.626;10.580;2023-12-20T03:02:36;101621.50;;;6.73;90.07
35129;BME280;21301;43.626;10.580;2023-12-20T03:05:02;101614.38;;;6.77;89.76
35129;BME280;21301;43.626;10.580;2023-12-20T03:07:28;101612.69;;;6.76;90.22
35129;BME280;21301;43.626;10.580;2023-12-20T03:09:53;101609.00;;;6.80;90.15
35129;BME280;21301;43.626;10.580;2023-12-20T03:12:19;101609.00;;;6.80;90.16
35129;BME280;21301;43.626;10.580;2023-12-20T03:14:45;101610.63;;;6.82;89.75
35129;BME280;21301;43.626;10.580;2023-12-20T03:17:10;101618.34;;;6.86;90.41
35129;BME280;21301;43.626;10.580;2023-12-20T03:19:36;101615.00;;;6.82;90.30
35129;BME280;21301;43.626;10.580;2023-12-20T03:22:01;101610.56;;;6.84;89.70
35129;BME280;21301;43.626;10.580;2023-12-20T03:24:27;101615.78;;;6.84;89.59
35129;BME280;21301;43.626;10.580;2023-12-20T03:26:53;101612.19;;;6.87;90.38
35129;BME280;21301;43.626;10.580;2023-12-20T03:29:19;101606.38;;;6.80;89.69
35129;BME280;21301;43.626;10.580;2023-12-20T03:31:44;101604.75;;;6.77;89.78
35129;BME280;21301;43.626;10.580;2023-12-20T03:34:11;101600.38;;;6.78;90.12
35129;BME280;21301;43.626;10.580;2023-12-20T03:36:37;101607.22;;;6.80;89.92
35129;BME280;21301;43.626;10.580;2023-12-20T03:39:03;101603.13;;;6.75;90.42
35129;BME280;21301;43.626;10.580;2023-12-20T03:41:28;101599.75;;;6.73;89.90
35129;BME280;21301;43.626;10.580;2023-12-20T03:43:54;101594.03;;;6.65;90.37
35129;BME280;21301;43.626;10.580;2023-12-20T03:46:19;101607.78;;;6.68;89.96
35129;BME280;21301;43.626;10.580;2023-12-20T03:48:45;101603.44;;;6.69;90.79
35129;BME280;21301;43.626;10.580;2023-12-20T03:51:11;101613.09;;;6.67;90.49
35129;BME280;21301;43.626;10.580;2023-12-20T03:53:36;101605.47;;;6.62;90.48
35129;BME280;21301;43.626;10.580;2023-12-20T03:56:02;101602.22;;;6.76;90.57
35129;BME280;21301;43.626;10.580;2023-12-20T03:58:28;101602.72;;;6.84;90.31
35129;BME280;21301;43.626;10.580;2023-12-20T04:00:53;101591.63;;;6.79;90.35
35129;BME280;21301;43.626;10.580;2023-12-20T04:03:19;101591.06;;;6.72;90.55
35129;BME280;21301;43.626;10.580;2023-12-20T04:05:44;101587.22;;;6.60;89.79
35129;BME280;21301;43.626;10.580;2023-12-20T04:08:11;101586.59;;;6.55;90.01
35129;BME280;21301;43.626;10.580;2023-12-20T04:10:37;101583.06;;;6.56;89.88
35129;BME280;21301;43.626;10.580;2023-12-20T04:13:03;101574.00;;;6.64;90.05
35129;BME280;21301;43.626;10.580;2023-12-20T04:15:29;101574.31;;;6.76;89.81
35129;BME280;21301;43.626;10.580;2023-12-20T04:17:54;101576.09;;;6.76;89.86
35129;BME280;21301;43.626;10.580;2023-12-20T04:20:20;101581.59;;;6.89;89.68
35129;BME280;21301;43.626;10.580;2023-12-20T04:22:45;101579.53;;;6.95;89.75
35129;BME280;21301;43.626;10.580;2023-12-20T04:25:11;101573.25;;;6.80;90.03
35129;BME280;21301;43.626;10.580;2023-12-20T04:27:36;101568.38;;;6.73;89.62
35129;BME280;21301;43.626;10.580;2023-12-20T04:30:02;101575.09;;;6.59;89.73
35129;BME280;21301;43.626;10.580;2023-12-20T04:32:29;101580.19;;;6.63;89.47
35129;BME280;21301;43.626;10.580;2023-12-20T04:34:54;101574.16;;;6.60;89.96
35129;BME280;21301;43.626;10.580;2023-12-20T04:37:20;101576.16;;;6.55;89.39
35129;BME280;21301;43.626;10.580;2023-12-20T04:39:46;101565.06;;;6.50;90.07
35129;BME280;21301;43.626;10.580;2023-12-20T04:42:13;101560.25;;;6.60;89.47
35129;BME280;21301;43.626;10.580;2023-12-20T04:44:38;101550.44;;;6.65;89.41
35129;BME280;21301;43.626;10.580;2023-12-20T04:47:04;101552.69;;;6.54;89.66
35129;BME280;21301;43.626;10.580;2023-12-20T04:49:29;101544.78;;;6.55;89.03
35129;BME280;21301;43.626;10.580;2023-12-20T04:51:55;101541.19;;;6.58;89.18
35129;BME280;21301;43.626;10.580;2023-12-20T04:54:21;101536.53;;;6.65;88.92
35129;BME280;21301;43.626;10.580;2023-12-20T04:56:47;101535.28;;;6.54;89.50
35129;BME280;21301;43.626;10.580;2023-12-20T04:59:13;101527.69;;;6.48;89.40
35129;BME280;21301;43.626;10.580;2023-12-20T05:01:39;101533.84;;;6.47;88.85
35129;BME280;21301;43.626;10.580;2023-12-20T05:04:04;101535.59;;;6.47;89.28
35129;BME280;21301;43.626;10.580;2023-12-20T05:06:30;101530.50;;;6.44;88.66
35129;BME280;21301;43.626;10.580;2023-12-20T05:08:55;101520.38;;;6.37;88.68
35129;BME280;21301;43.626;10.580;2023-12-20T05:11:21;101520.00;;;6.26;88.66
35129;BME280;21301;43.626;10.580;2023-12-20T05:13:47;101516.44;;;6.27;88.94
35129;BME280;21301;43.626;10.580;2023-12-20T05:16:13;101517.31;;;6.28;88.85
35129;BME280;21301;43.626;10.580;2023-12-20T05:18:46;101506.00;;;6.27;89.30
35129;BME280;21301;43.626;10.580;2023-12-20T05:21:12;101516.41;;;6.29;89.01
35129;BME280;21301;43.626;10.580;2023-12-20T05:23:37;101521.63;;;6.29;88.86
35129;BME280;21301;43.626;10.580;2023-12-20T05:26:03;101505.16;;;6.27;89.29
35129;BME280;21301;43.626;10.580;2023-12-20T05:28:28;101501.72;;;6.26;88.93
35129;BME280;21301;43.626;10.580;2023-12-20T05:30:55;101482.72;;;6.23;88.93
35129;BME280;21301;43.626;10.580;2023-12-20T05:33:21;101471.72;;;6.16;89.21
35129;BME280;21301;43.626;10.580;2023-12-20T05:35:46;101469.09;;;6.16;89.09
35129;BME280;21301;43.626;10.580;2023-12-20T05:38:12;101466.56;;;6.14;89.08
35129;BME280;21301;43.626;10.580;2023-12-20T05:40:38;101470.00;;;6.15;89.22
35129;BME280;21301;43.626;10.580;2023-12-20T05:43:05;101463.88;;;6.16;88.89
35129;BME280;21301;43.626;10.580;2023-12-20T05:45:30;101479.59;;;6.14;88.14
35129;BME280;21301;43.626;10.580;2023-12-20T05:47:56;101473.16;;;6.03;88.43
35129;BME280;21301;43.626;10.580;2023-12-20T05:50:21;101478.53;;;6.00;87.85
35129;BME280;21301;43.626;10.580;2023-12-20T05:52:47;101479.44;;;5.78;87.56
35129;BME280;21301;43.626;10.580;2023-12-20T05:55:12;101488.06;;;5.80;87.81
35129;BME280;21301;43.626;10.580;2023-12-20T05:57:38;101488.56;;;5.88;87.92
35129;BME280;21301;43.626;10.580;2023-12-20T06:00:04;101478.75;;;5.93;87.69
35129;BME280;21301;43.626;10.580;2023-12-20T06:02:37;101478.53;;;6.00;87.91
35129;BME280;21301;43.626;10.580;2023-12-20T06:05:06;101467.25;;;5.99;87.60
35129;BME280;21301;43.626;10.580;2023-12-20T06:07:31;101481.16;;;6.00;87.00
35129;BME280;21301;43.626;10.580;2023-12-20T06:09:57;101471.03;;;5.92;86.84
35129;BME280;21301;43.626;10.580;2023-12-20T06:12:22;101487.41;;;5.95;87.50
35129;BME280;21301;43.626;10.580;2023-12-20T06:14:48;101487.88;;;5.85;87.15
35129;BME280;21301;43.626;10.580;2023-12-20T06:17:14;101479.16;;;5.84;87.54
35129;BME280;21301;43.626;10.580;2023-12-20T06:19:39;101474.63;;;5.89;87.14
35129;BME280;21301;43.626;10.580;2023-12-20T06:22:05;101482.56;;;5.86;86.68
35129;BME280;21301;43.626;10.580;2023-12-20T06:24:30;101489.81;;;5.80;86.92
35129;BME280;21301;43.626;10.580;2023-12-20T06:26:59;101487.88;;;5.85;86.82
35129;BME280;21301;43.626;10.580;2023-12-20T06:29:24;101492.88;;;5.89;86.67
35129;BME280;21301;43.626;10.580;2023-12-20T06:31:50;101498.41;;;5.82;86.90
35129;BME280;21301;43.626;10.580;2023-12-20T06:34:15;101492.41;;;5.80;86.68
35129;BME280;21301;43.626;10.580;2023-12-20T06:36:41;101491.22;;;5.87;87.16
35129;BME280;21301;43.626;10.580;2023-12-20T06:39:06;101489.13;;;6.15;87.11
35129;BME280;21301;43.626;10.580;2023-12-20T06:41:32;101483.78;;;6.18;87.54
35129;BME280;21301;43.626;10.580;2023-12-20T06:43:58;101476.84;;;6.17;87.89
35129;BME280;21301;43.626;10.580;2023-12-20T06:46:24;101471.63;;;6.17;87.78
35129;BME280;21301;43.626;10.580;2023-12-20T06:48:49;101463.72;;;6.19;87.73
35129;BME280;21301;43.626;10.580;2023-12-20T06:51:16;101465.81;;;6.11;87.08
35129;BME280;21301;43.626;10.580;2023-12-20T06:53:42;101474.75;;;6.07;86.78
35129;BME280;21301;43.626;10.580;2023-12-20T06:56:09;101473.53;;;5.93;86.36
35129;BME280;21301;43.626;10.580;2023-12-20T06:58:35;101479.84;;;5.89;86.03
35129;BME280;21301;43.626;10.580;2023-12-20T07:01:02;101473.22;;;6.01;86.02
35129;BME280;21301;43.626;10.580;2023-12-20T07:03:29;101476.81;;;5.98;86.05
35129;BME280;21301;43.626;10.580;2023-12-20T07:05:55;101473.75;;;6.09;86.15
35129;BME280;21301;43.626;10.580;2023-12-20T07:08:20;101464.28;;;6.07;85.95
35129;BME280;21301;43.626;10.580;2023-12-20T07:10:46;101468.38;;;6.12;85.81
35129;BME280;21301;43.626;10.580;2023-12-20T07:13:12;101455.63;;;6.06;85.90
35129;BME280;21301;43.626;10.580;2023-12-20T07:15:38;101452.03;;;6.09;85.38
35129;BME280;21301;43.626;10.580;2023-12-20T07:18:04;101457.94;;;6.12;85.51
35129;BME280;21301;43.626;10.580;2023-12-20T07:20:30;101453.22;;;6.21;85.24
35129;BME280;21301;43.626;10.580;2023-12-20T07:22:56;101449.63;;;6.23;84.87
35129;BME280;21301;43.626;10.580;2023-12-20T07:25:21;101444.53;;;6.20;84.66
35129;BME280;21301;43.626;10.580;2023-12-20T07:27:47;101445.38;;;6.21;85.29
35129;BME280;21301;43.626;10.580;2023-12-20T07:30:12;101449.63;;;6.23;85.04
35129;BME280;21301;43.626;10.580;2023-12-20T07:32:38;101455.84;;;6.21;84.54
35129;BME280;21301;43.626;10.580;2023-12-20T07:35:04;101463.59;;;6.22;85.03
35129;BME280;21301;43.626;10.580;2023-12-20T07:37:30;101453.97;;;6.23;84.57
35129;BME280;21301;43.626;10.580;2023-12-20T07:39:56;101444.31;;;6.44;84.97
35129;BME280;21301;43.626;10.580;2023-12-20T07:42:22;101451.78;;;6.51;85.32
35129;BME280;21301;43.626;10.580;2023-12-20T07:44:47;101439.69;;;6.49;85.91
35129;BME280;21301;43.626;10.580;2023-12-20T07:47:13;101439.66;;;6.50;85.26
35129;BME280;21301;43.626;10.580;2023-12-20T07:49:42;101430.44;;;6.60;85.97
35129;BME280;21301;43.626;10.580;2023-12-20T07:52:08;101422.00;;;6.73;85.79
35129;BME280;21301;43.626;10.580;2023-12-20T07:54:34;101423.78;;;6.90;85.00
35129;BME280;21301;43.626;10.580;2023-12-20T07:57:00;101427.72;;;6.98;84.65
35129;BME280;21301;43.626;10.580;2023-12-20T07:59:25;101421.34;;;7.04;84.70
35129;BME280;21301;43.626;10.580;2023-12-20T08:01:51;101426.78;;;6.99;84.74
35129;BME280;21301;43.626;10.580;2023-12-20T08:04:16;101426.56;;;7.04;84.88
35129;BME280;21301;43.626;10.580;2023-12-20T08:06:42;101422.50;;;6.98;84.79
35129;BME280;21301;43.626;10.580;2023-12-20T08:09:08;101414.81;;;7.13;84.22
35129;BME280;21301;43.626;10.580;2023-12-20T08:11:33;101412.19;;;7.30;83.76
35129;BME280;21301;43.626;10.580;2023-12-20T08:13:59;101412.88;;;7.34;84.16
35129;BME280;21301;43.626;10.580;2023-12-20T08:16:25;101413.00;;;7.48;83.90
35129;BME280;21301;43.626;10.580;2023-12-20T08:18:51;101420.88;;;7.48;83.69
35129;BME280;21301;43.626;10.580;2023-12-20T08:21:17;101426.16;;;7.46;83.17
35129;BME280;21301;43.626;10.580;2023-12-20T08:23:46;101421.22;;;7.40;83.22
35129;BME280;21301;43.626;10.580;2023-12-20T08:26:13;101418.84;;;7.36;83.74
35129;BME280;21301;43.626;10.580;2023-12-20T08:28:38;101426.41;;;7.24;83.12
35129;BME280;21301;43.626;10.580;2023-12-20T08:31:04;101411.63;;;7.23;83.76
35129;BME280;21301;43.626;10.580;2023-12-20T08:33:29;101416.97;;;7.22;84.33
35129;BME280;21301;43.626;10.580;2023-12-20T08:35:55;101408.25;;;7.21;83.83
35129;BME280;21301;43.626;10.580;2023-12-20T08:38:20;101408.25;;;7.21;84.35
35129;BME280;21301;43.626;10.580;2023-12-20T08:40:46;101414.34;;;7.22;83.43
35129;BME280;21301;43.626;10.580;2023-12-20T08:43:11;101418.47;;;7.26;83.99
35129;BME280;21301;43.626;10.580;2023-12-20T08:45:37;101420.72;;;7.34;83.61
35129;BME280;21301;43.626;10.580;2023-12-20T08:48:04;101421.47;;;7.36;84.17
35129;BME280;21301;43.626;10.580;2023-12-20T08:50:30;101414.09;;;7.44;83.71
35129;BME280;21301;43.626;10.580;2023-12-20T08:52:55;101419.56;;;7.39;83.17
35129;BME280;21301;43.626;10.580;2023-12-20T08:55:21;101426.63;;;7.37;83.47
35129;BME280;21301;43.626;10.580;2023-12-20T08:57:46;101421.41;;;7.37;84.01
35129;BME280;21301;43.626;10.580;2023-12-20T09:00:13;101425.97;;;7.34;84.00
35129;BME280;21301;43.626;10.580;2023-12-20T09:02:38;101431.19;;;7.34;83.82
35129;BME280;21301;43.626;10.580;2023-12-20T09:05:04;101436.03;;;7.41;84.06
35129;BME280;21301;43.626;10.580;2023-12-20T09:07:30;101440.31;;;7.42;83.54
35129;BME280;21301;43.626;10.580;2023-12-20T09:09:58;101445.13;;;7.34;83.83
35129;BME280;21301;43.626;10.580;2023-12-20T09:12:24;101437.03;;;7.39;83.96
35129;BME280;21301;43.626;10.580;2023-12-20T09:14:50;101433.31;;;7.43;83.49
35129;BME280;21301;43.626;10.580;2023-12-20T09:17:17;101424.09;;;7.36;83.63
35129;BME280;21301;43.626;10.580;2023-12-20T09:19:43;101424.09;;;7.36;84.02
35129;BME280;21301;43.626;10.580;2023-12-20T09:22:12;101419.31;;;7.44;83.45
35129;BME280;21301;43.626;10.580;2023-12-20T09:24:38;101419.56;;;7.39;83.86
35129;BME280;21301;43.626;10.580;2023-12-20T09:27:06;101420.00;;;7.47;83.37
35129;BME280;21301;43.626;10.580;2023-12-20T09:29:32;101420.69;;;7.51;83.87
35129;BME280;21301;43.626;10.580;2023-12-20T09:31:58;101417.06;;;7.54;83.63
35129;BME280;21301;43.626;10.580;2023-12-20T09:34:24;101415.53;;;7.50;83.73
35129;BME280;21301;43.626;10.580;2023-12-20T09:36:51;101417.53;;;7.44;83.67
35129;BME280;21301;43.626;10.580;2023-12-20T09:39:18;101414.84;;;7.46;83.98
35129;BME280;21301;43.626;10.580;2023-12-20T09:42:09;101411.13;;;7.50;83.62
35129;BME280;21301;43.626;10.580;2023-12-20T09:44:37;101410.34;;;7.65;83.16
35129;BME280;21301;43.626;10.580;2023-12-20T09:47:06;101409.50;;;7.65;82.59
35129;BME280;21301;43.626;10.580;2023-12-20T09:49:32;101412.19;;;7.63;83.26
35129;BME280;21301;43.626;10.580;2023-12-20T09:52:00;101409.53;;;7.81;83.10
35129;BME280;21301;43.626;10.580;2023-12-20T09:54:27;101396.97;;;7.87;82.79
35129;BME280;21301;43.626;10.580;2023-12-20T09:56:53;101395.78;;;7.93;82.80
35129;BME280;21301;43.626;10.580;2023-12-20T09:59:19;101390.81;;;8.04;82.48
35129;BME280;21301;43.626;10.580;2023-12-20T10:01:45;101395.03;;;8.07;82.47
35129;BME280;21301;43.626;10.580;2023-12-20T10:04:12;101396.03;;;7.88;82.11
35129;BME280;21301;43.626;10.580;2023-12-20T10:06:42;101390.50;;;7.61;82.53
35129;BME280;21301;43.626;10.580;2023-12-20T10:09:09;101386.25;;;7.59;82.38
35129;BME280;21301;43.626;10.580;2023-12-20T10:11:36;101384.59;;;7.58;81.63
35129;BME280;21301;43.626;10.580;2023-12-20T10:14:06;101384.97;;;7.50;81.65
35129;BME280;21301;43.626;10.580;2023-12-20T10:16:32;101383.13;;;7.52;81.87
35129;BME280;21301;43.626;10.580;2023-12-20T10:19:00;101375.31;;;7.68;81.25
35129;BME280;21301;43.626;10.580;2023-12-20T10:21:30;101375.06;;;7.73;81.45
35129;BME280;21301;43.626;10.580;2023-12-20T10:23:56;101367.03;;;7.76;81.27
35129;BME280;21301;43.626;10.580;2023-12-20T10:26:26;101364.78;;;7.85;80.37
35129;BME280;21301;43.626;10.580;2023-12-20T10:28:59;101362.31;;;7.82;80.61
35129;BME280;21301;43.626;10.580;2023-12-20T10:31:28;101361.13;;;7.88;80.24
35129;BME280;21301;43.626;10.580;2023-12-20T10:33:59;101358.34;;;7.91;80.74
35129;BME280;21301;43.626;10.580;2023-12-20T10:36:26;101360.81;;;7.94;80.18
35129;BME280;21301;43.626;10.580;2023-12-20T10:38:53;101353.38;;;8.02;80.33
35129;BME280;21301;43.626;10.580;2023-12-20T10:41:25;101340.94;;;8.22;81.14
35129;BME280;21301;43.626;10.580;2023-12-20T10:43:51;101343.88;;;8.31;81.14
35129;BME280;21301;43.626;10.580;2023-12-20T10:46:19;101340.34;;;8.32;80.89
35129;BME280;21301;43.626;10.580;2023-12-20T10:48:46;101332.72;;;8.44;80.72
35129;BME280;21301;43.626;10.580;2023-12-20T10:51:14;101330.91;;;8.60;80.33
35129;BME280;21301;43.626;10.580;2023-12-20T10:53:42;101320.94;;;8.67;80.26
35129;BME280;21301;43.626;10.580;2023-12-20T10:56:12;101317.63;;;8.63;80.08
35129;BME280;21301;43.626;10.580;2023-12-20T10:58:42;101311.53;;;8.63;80.19
35129;BME280;21301;43.626;10.580;2023-12-20T11:01:18;101311.19;;;8.69;80.42
35129;BME280;21301;43.626;10.580;2023-12-20T11:03:49;101297.28;;;8.83;80.00
35129;BME280;21301;43.626;10.580;2023-12-20T11:09:12;101280.22;;;8.76;79.20
35129;BME280;21301;43.626;10.580;2023-12-20T11:14:07;101273.28;;;8.89;79.17
35129;BME280;21301;43.626;10.580;2023-12-20T11:16:37;101273.84;;;8.94;79.27
35129;BME280;21301;43.626;10.580;2023-12-20T11:19:06;101268.06;;;9.03;79.14
35129;BME280;21301;43.626;10.580;2023-12-20T11:21:32;101262.63;;;9.06;78.98
35129;BME280;21301;43.626;10.580;2023-12-20T11:23:59;101268.25;;;9.14;79.01
35129;BME280;21301;43.626;10.580;2023-12-20T11:26:29;101255.91;;;9.16;78.41
35129;BME280;21301;43.626;10.580;2023-12-20T11:31:56;101242.84;;;9.01;78.95
35129;BME280;21301;43.626;10.580;2023-12-20T11:34:22;101243.69;;;9.01;78.87
35129;BME280;21301;43.626;10.580;2023-12-20T11:36:47;101245.69;;;8.98;78.38
35129;BME280;21301;43.626;10.580;2023-12-20T11:39:21;101232.16;;;8.89;78.70
35129;BME280;21301;43.626;10.580;2023-12-20T11:41:49;101222.16;;;8.82;78.89
35129;BME280;21301;43.626;10.580;2023-12-20T11:44:17;101221.13;;;8.84;78.95
35129;BME280;21301;43.626;10.580;2023-12-20T11:46:44;101221.69;;;8.89;78.74
35129;BME280;21301;43.626;10.580;2023-12-20T11:49:09;101237.13;;;8.94;78.72
35129;BME280;21301;43.626;10.580;2023-12-20T11:51:35;101237.91;;;8.96;78.25
35129;BME280;21301;43.626;10.580;2023-12-20T11:54:00;101233.41;;;8.98;78.37
35129;BME280;21301;43.626;10.580;2023-12-20T11:56:26;101228.34;;;8.95;78.10
35129;BME280;21301;43.626;10.580;2023-12-20T11:58:52;101224.13;;;8.92;78.29
35129;BME280;21301;43.626;10.580;2023-12-20T12:01:19;101213.44;;;8.95;78.26
35129;BME280;21301;43.626;10.580;2023-12-20T12:03:46;101215.31;;;8.93;78.47
35129;BME280;21301;43.626;10.580;2023-12-20T12:06:12;101216.44;;;9.04;77.87
35129;BME280;21301;43.626;10.580;2023-12-20T12:08:38;101206.31;;;9.12;77.53
35129;BME280;21301;43.626;10.580;2023-12-20T12:11:04;101202.41;;;9.05;77.53
35129;BME280;21301;43.626;10.580;2023-12-20T12:13:30;101197.91;;;9.07;77.16
35129;BME280;21301;43.626;10.580;2023-12-20T12:15:55;101196.38;;;9.17;77.28
35129;BME280;21301;43.626;10.580;2023-12-20T12:18:21;101194.41;;;9.21;76.96
35129;BME280;21301;43.626;10.580;2023-12-20T12:20:47;101199.22;;;9.14;77.22
35129;BME280;21301;43.626;10.580;2023-12-20T12:23:12;101194.09;;;9.25;76.54
35129;BME280;21301;43.626;10.580;2023-12-20T12:25:39;101192.06;;;9.16;77.00
35129;BME280;21301;43.626;10.580;2023-12-20T12:28:05;101188.50;;;9.17;76.67
35129;BME280;21301;43.626;10.580;2023-12-20T12:30:31;101182.50;;;9.15;76.74
35129;BME280;21301;43.626;10.580;2023-12-20T12:32:56;101181.94;;;9.24;76.44
35129;BME280;21301;43.626;10.580;2023-12-20T12:35:23;101187.75;;;9.29;76.55
35129;BME280;21301;43.626;10.580;2023-12-20T12:37:49;101176.50;;;9.27;76.38
35129;BME280;21301;43.626;10.580;2023-12-20T12:40:16;101177.19;;;9.16;76.34
35129;BME280;21301;43.626;10.580;2023-12-20T12:42:44;101169.19;;;9.18;76.45
35129;BME280;21301;43.626;10.580;2023-12-20T12:45:10;101162.16;;;9.18;76.15
35129;BME280;21301;43.626;10.580;2023-12-20T12:47:37;101159.53;;;9.18;76.22
35129;BME280;21301;43.626;10.580;2023-12-20T12:50:03;101155.22;;;9.17;75.94
35129;BME280;21301;43.626;10.580;2023-12-20T12:52:30;101146.78;;;9.27;75.86
35129;BME280;21301;43.626;10.580;2023-12-20T12:54:57;101140.69;;;9.26;75.79